createdAt,value
2018-04-26T00:01:14.970Z,8.00
2018-04-26T00:03:44.274Z,6.43
2018-04-26T00:06:13.597Z,10.13
2018-04-26T00:08:42.917Z,6.00
2018-04-26T00:11:13.013Z,4.77
2018-04-26T00:13:42.311Z,6.03
2018-04-26T00:16:11.625Z,5.67
2018-04-26T00:18:40.918Z,4.07
2018-04-26T00:21:10.238Z,6.53
2018-04-26T00:23:39.538Z,5.70
2018-04-26T00:26:09.618Z,6.73
2018-04-26T00:28:38.988Z,5.97
2018-04-26T00:31:08.235Z,9.10
2018-04-26T00:33:37.535Z,7.53
2018-04-26T00:36:06.833Z,6.67
2018-04-26T00:38:36.175Z,5.10
2018-04-26T00:41:05.459Z,7.63
2018-04-26T00:43:34.808Z,5.03
2018-04-26T00:46:04.107Z,5.93
2018-04-26T00:48:33.432Z,8.87
2018-04-26T00:51:02.768Z,5.20
2018-04-26T00:53:32.062Z,7.43
2018-04-26T00:56:01.361Z,5.90
2018-04-26T00:58:30.682Z,6.33
2018-04-26T01:00:59.983Z,6.77
2018-04-26T01:03:29.290Z,7.67
2018-04-26T01:05:58.636Z,6.50
2018-04-26T01:08:27.918Z,7.83
2018-04-26T01:10:57.273Z,6.77
2018-04-26T01:13:26.596Z,7.07
2018-04-26T01:15:55.882Z,6.73
2018-04-26T01:18:25.167Z,4.63
2018-04-26T01:20:54.513Z,9.53
2018-04-26T01:23:23.817Z,6.70
2018-04-26T01:25:53.911Z,6.87
2018-04-26T01:28:23.264Z,7.47
2018-04-26T01:30:52.562Z,5.83
2018-04-26T01:33:21.851Z,7.30
2018-04-26T01:35:51.934Z,6.67
2018-04-26T01:38:21.249Z,9.73
2018-04-26T01:40:50.531Z,9.07
2018-04-26T01:43:20.734Z,5.60
2018-04-26T01:45:50.046Z,9.37
2018-04-26T01:48:19.322Z,8.27
2018-04-26T01:50:48.610Z,6.30
2018-04-26T01:53:18.698Z,7.57
2018-04-26T01:55:47.983Z,5.47
2018-04-26T01:58:17.301Z,7.00
2018-04-26T02:00:46.609Z,7.07
2018-04-26T02:03:16.691Z,8.13
2018-04-26T02:05:46.008Z,5.03
2018-04-26T02:08:15.306Z,6.07
2018-04-26T02:10:44.612Z,8.20
2018-04-26T02:13:13.920Z,7.50
2018-04-26T02:15:43.208Z,9.47
2018-04-26T02:18:12.499Z,7.40
2018-04-26T02:20:41.805Z,8.43
2018-04-26T02:23:11.101Z,7.50
2018-04-26T02:25:40.403Z,11.10
2018-04-26T02:28:09.709Z,14.27
2018-04-26T02:30:39.030Z,8.80
2018-04-26T02:33:08.326Z,6.90
2018-04-26T02:35:37.641Z,9.67
2018-04-26T02:38:06.946Z,8.40
2018-04-26T02:40:36.252Z,12.07
2018-04-26T02:43:05.559Z,6.40
2018-04-26T02:45:34.863Z,8.63
2018-04-26T02:48:04.171Z,9.20
2018-04-26T02:50:33.463Z,10.27
2018-04-26T02:53:02.780Z,7.40
2018-04-26T02:55:32.093Z,11.83
2018-04-26T02:58:02.176Z,8.03
2018-04-26T03:00:31.490Z,12.27
2018-04-26T03:03:00.783Z,9.23
2018-04-26T03:05:30.867Z,11.70
2018-04-26T03:08:00.188Z,11.17
2018-04-26T03:10:29.477Z,8.93
2018-04-26T03:12:58.822Z,8.50
2018-04-26T03:15:28.112Z,8.30
2018-04-26T03:17:57.407Z,8.57
2018-04-26T03:20:26.745Z,7.40
2018-04-26T03:22:56.029Z,11.50
2018-04-26T03:25:25.363Z,8.10
2018-04-26T03:27:55.450Z,9.27
2018-04-26T03:30:24.754Z,8.57
2018-04-26T03:32:54.832Z,9.00
2018-04-26T03:35:24.118Z,11.03
2018-04-26T03:37:53.410Z,9.40
2018-04-26T03:40:23.517Z,10.17
2018-04-26T03:42:52.794Z,8.17
2018-04-26T03:45:22.060Z,9.80
2018-04-26T03:47:51.416Z,11.90
2018-04-26T03:50:20.727Z,9.40
2018-04-26T03:52:50.032Z,11.20
2018-04-26T03:55:20.095Z,14.20
2018-04-26T03:57:49.409Z,13.03
2018-04-26T04:00:36.555Z,13.20
2018-04-26T04:03:23.649Z,10.47
2018-04-26T04:06:21.729Z,10.23
2018-04-26T04:08:51.061Z,12.07
2018-04-26T04:11:20.345Z,10.00
2018-04-26T04:13:49.766Z,11.40
2018-04-26T04:16:19.746Z,12.20
2018-04-26T04:18:49.043Z,13.17
2018-04-26T04:21:18.349Z,10.77
2018-04-26T04:23:47.660Z,14.47
2018-04-26T04:26:16.969Z,12.10
2018-04-26T04:28:46.275Z,15.83
2018-04-26T04:31:15.568Z,14.27
2018-04-26T04:33:44.885Z,13.43
2018-04-26T04:36:14.177Z,10.47
2018-04-26T04:38:43.479Z,10.13
2018-04-26T04:41:12.785Z,14.27
2018-04-26T04:43:42.109Z,13.03
2018-04-26T04:46:11.402Z,14.93
2018-04-26T04:48:40.746Z,12.60
2018-04-26T04:51:10.040Z,9.87
2018-04-26T04:53:40.125Z,14.60
2018-04-26T04:56:09.427Z,11.90
2018-04-26T04:58:38.747Z,14.33
2018-04-26T05:01:08.068Z,11.37
2018-04-26T05:03:38.140Z,13.60
2018-04-26T05:06:07.451Z,8.33
2018-04-26T05:08:36.770Z,11.93
2018-04-26T05:11:06.083Z,12.83
2018-04-26T05:13:35.398Z,10.20
2018-04-26T05:16:05.488Z,10.00
2018-04-26T05:18:34.799Z,9.83
2018-04-26T05:21:04.894Z,10.30
2018-04-26T05:23:34.190Z,10.67
2018-04-26T05:26:03.539Z,11.63
2018-04-26T05:28:33.598Z,7.20
2018-04-26T05:31:02.926Z,15.00
2018-04-26T05:33:33.061Z,10.43
2018-04-26T05:36:02.380Z,12.93
2018-04-26T05:38:32.454Z,10.37
2018-04-26T05:41:01.752Z,11.03
2018-04-26T05:43:31.068Z,7.17
2018-04-26T05:46:00.372Z,11.13
2018-04-26T05:48:29.689Z,3.57
2018-04-26T05:50:59.005Z,2.17
2018-04-26T05:53:28.306Z,2.80
2018-04-26T05:55:57.647Z,4.37
2018-04-26T05:58:27.696Z,3.13
2018-04-26T06:00:56.999Z,3.27
2018-04-26T06:03:26.388Z,4.07
2018-04-26T06:05:55.643Z,5.77
2018-04-26T06:08:25.728Z,3.70
2018-04-26T06:10:55.037Z,5.43
2018-04-26T06:13:24.346Z,5.73
2018-04-26T06:15:53.689Z,7.93
2018-04-26T06:18:23.762Z,5.03
2018-04-26T06:20:53.080Z,7.03
2018-04-26T06:23:22.461Z,6.53
2018-04-26T06:25:51.762Z,5.23
2018-04-26T06:28:21.076Z,4.27
2018-04-26T06:30:50.376Z,4.70
2018-04-26T06:33:19.697Z,3.23
2018-04-26T06:35:49.788Z,2.77
2018-04-26T06:38:19.104Z,4.77
2018-04-26T06:40:48.427Z,3.77
2018-04-26T06:43:17.702Z,3.03
2018-04-26T06:45:47.056Z,4.33
2018-04-26T06:48:17.107Z,4.80
2018-04-26T06:50:47.861Z,3.70
2018-04-26T06:53:17.145Z,5.10
2018-04-26T06:55:46.464Z,4.50
2018-04-26T06:58:15.802Z,3.97
2018-04-26T07:00:45.119Z,3.30
2018-04-26T07:03:15.216Z,4.00
2018-04-26T07:05:44.576Z,3.77
2018-04-26T07:08:13.878Z,5.00
2018-04-26T07:10:43.200Z,4.83
2018-04-26T07:13:12.518Z,6.70
2018-04-26T07:15:41.829Z,7.27
2018-04-26T07:18:11.143Z,8.07
2018-04-26T07:20:41.233Z,6.83
2018-04-26T07:23:10.522Z,7.03
2018-04-26T07:25:39.898Z,6.33
2018-04-26T07:28:09.187Z,6.23
2018-04-26T07:30:38.490Z,9.60
2018-04-26T07:33:08.618Z,8.13
2018-04-26T07:35:37.933Z,10.03
2018-04-26T07:38:07.297Z,9.23
2018-04-26T07:40:37.358Z,9.07
2018-04-26T07:43:06.663Z,7.60
2018-04-26T07:45:35.982Z,7.60
2018-04-26T07:48:05.324Z,7.07
2018-04-26T07:50:34.631Z,10.57
2018-04-26T07:53:04.825Z,7.67
2018-04-26T07:55:34.269Z,8.10
2018-04-26T07:58:04.327Z,8.57
2018-04-26T08:00:33.644Z,10.47
2018-04-26T08:03:03.051Z,12.33
2018-04-26T08:05:32.367Z,12.27
2018-04-26T08:08:01.719Z,10.33
2018-04-26T08:10:31.048Z,14.57
2018-04-26T08:13:00.555Z,10.47
2018-04-26T08:15:29.868Z,12.13
2018-04-26T08:17:59.216Z,13.50
2018-04-26T08:20:28.556Z,11.50
2018-04-26T08:22:57.875Z,16.67
2018-04-26T08:25:27.211Z,14.97
2018-04-26T08:27:57.292Z,13.17
2018-04-26T08:30:26.659Z,11.63
2018-04-26T08:32:55.955Z,13.13
2018-04-26T08:35:25.277Z,14.70
2018-04-26T08:37:54.588Z,12.87
2018-04-26T08:40:23.965Z,14.67
2018-04-26T08:42:53.271Z,13.03
2018-04-26T08:45:22.591Z,15.30
2018-04-26T08:47:51.936Z,10.73
2018-04-26T08:50:21.271Z,12.97
2018-04-26T08:52:50.617Z,14.30
2018-04-26T08:55:19.944Z,14.60
2018-04-26T08:57:49.260Z,10.83
2018-04-26T09:00:19.353Z,17.23
2018-04-26T09:02:48.694Z,10.77
2018-04-26T09:05:18.781Z,12.77
2018-04-26T09:07:48.121Z,10.23
2018-04-26T09:10:18.187Z,7.77
2018-04-26T09:12:47.626Z,8.40
2018-04-26T09:15:16.947Z,9.23
2018-04-26T09:17:46.253Z,11.37
2018-04-26T09:20:15.574Z,8.00
2018-04-26T09:22:44.949Z,7.47
2018-04-26T09:25:15.041Z,8.83
2018-04-26T09:27:45.107Z,9.77
2018-04-26T09:30:14.481Z,8.23
2018-04-26T09:32:43.787Z,8.03
2018-04-26T09:35:14.013Z,10.77
2018-04-26T09:37:43.318Z,12.63
2018-04-26T09:40:13.434Z,8.70
2018-04-26T09:42:42.742Z,10.43
2018-04-26T09:45:12.839Z,12.03
2018-04-26T09:47:42.165Z,11.03
2018-04-26T09:50:12.272Z,12.63
2018-04-26T09:52:41.581Z,13.80
2018-04-26T09:55:11.026Z,10.83
2018-04-26T09:57:40.363Z,12.93
2018-04-26T10:00:09.671Z,11.63
2018-04-26T10:05:57.110Z,7.07
2018-04-26T10:08:26.434Z,8.67
2018-04-26T10:10:55.742Z,10.17
2018-04-26T10:13:25.839Z,6.37
2018-04-26T10:15:55.165Z,10.03
2018-04-26T10:18:24.499Z,7.93
2018-04-26T10:20:53.809Z,8.97
2018-04-26T10:23:23.111Z,8.30
2018-04-26T10:25:52.443Z,10.93
2018-04-26T10:28:21.751Z,7.43
2018-04-26T10:30:51.101Z,8.63
2018-04-26T10:33:21.201Z,9.83
2018-04-26T10:35:50.503Z,7.27
2018-04-26T10:38:20.618Z,10.83
2018-04-26T10:40:49.933Z,8.77
2018-04-26T10:43:20.019Z,8.73
2018-04-26T10:45:49.348Z,7.73
2018-04-26T10:48:19.418Z,6.00
2018-04-26T10:50:48.748Z,6.43
2018-04-26T10:53:18.291Z,10.57
2018-04-26T10:55:48.359Z,8.40
2018-04-26T10:58:17.672Z,7.63
2018-04-26T11:00:46.994Z,7.73
2018-04-26T11:03:16.341Z,8.87
2018-04-26T11:05:47.148Z,6.90
2018-04-26T11:08:16.500Z,7.03
2018-04-26T11:10:45.816Z,8.10
2018-04-26T11:13:15.127Z,6.63
2018-04-26T11:15:44.544Z,8.07
2018-04-26T11:18:14.548Z,10.10
2018-04-26T11:20:43.879Z,6.40
2018-04-26T11:23:13.200Z,8.17
2018-04-26T11:25:43.271Z,6.80
2018-04-26T11:28:12.606Z,7.60
2018-04-26T11:30:42.701Z,7.67
2018-04-26T11:33:12.030Z,8.70
2018-04-26T11:35:42.111Z,5.03
2018-04-26T11:38:11.423Z,6.13
2018-04-26T11:40:40.773Z,6.07
2018-04-26T11:43:10.847Z,8.97
2018-04-26T11:45:40.223Z,6.30
2018-04-26T11:48:09.532Z,5.77
2018-04-26T11:50:38.869Z,6.33
2018-04-26T11:53:08.200Z,7.67
2018-04-26T11:55:38.287Z,8.67
2018-04-26T11:58:07.618Z,4.97
2018-04-26T12:00:37.707Z,7.63
2018-04-26T12:03:07.012Z,6.87
2018-04-26T12:05:36.321Z,7.17
2018-04-26T12:08:05.643Z,8.13
2018-04-26T12:10:35.739Z,8.97
2018-04-26T12:13:05.143Z,5.57
2018-04-26T12:15:34.743Z,8.07
2018-04-26T12:18:04.074Z,7.40
2018-04-26T12:20:41.443Z,5.87
2018-04-26T12:23:10.742Z,7.43
2018-04-26T12:25:40.075Z,6.30
2018-04-26T12:28:09.386Z,6.73
2018-04-26T12:30:39.486Z,4.37
2018-04-26T12:33:08.791Z,8.97
2018-04-26T12:35:38.097Z,10.47
2018-04-26T12:38:08.222Z,8.17
2018-04-26T12:40:38.292Z,5.33
2018-04-26T12:43:07.598Z,4.87
2018-04-26T12:45:36.947Z,7.77
2018-04-26T12:48:07.018Z,6.00
2018-04-26T12:50:36.354Z,7.23
2018-04-26T12:53:05.654Z,4.80
2018-04-26T12:55:34.967Z,5.83
2018-04-26T12:58:04.328Z,9.43
2018-04-26T13:00:34.368Z,7.57
2018-04-26T13:03:03.683Z,6.13
2018-04-26T13:05:33.007Z,6.30
2018-04-26T13:08:03.170Z,8.30
2018-04-26T13:10:32.645Z,8.47
2018-04-26T13:13:02.744Z,9.00
2018-04-26T13:15:32.068Z,10.00
2018-04-26T13:18:02.167Z,4.40
2018-04-26T13:20:31.498Z,8.37
2018-04-26T13:23:00.806Z,7.40
2018-04-26T13:25:30.110Z,8.60
2018-04-26T13:27:59.438Z,6.40
2018-04-26T13:30:28.750Z,7.43
2018-04-26T13:32:58.040Z,5.47
2018-04-26T13:35:27.376Z,4.73
2018-04-26T13:37:56.699Z,5.93
2018-04-26T13:40:26.799Z,6.90
2018-04-26T13:42:56.117Z,6.93
2018-04-26T13:45:26.203Z,5.30
2018-04-26T13:47:55.507Z,4.13
2018-04-26T13:50:24.827Z,4.07
2018-04-26T13:52:54.143Z,3.43
2018-04-26T13:55:24.241Z,2.87
2018-04-26T13:57:53.567Z,3.03
2018-04-26T14:00:23.664Z,2.53
2018-04-26T14:02:52.959Z,2.60
2018-04-26T14:05:22.283Z,3.00
2018-04-26T14:07:51.597Z,2.77
2018-04-26T14:10:21.702Z,2.87
2018-04-26T14:12:51.059Z,4.33
2018-04-26T14:15:20.359Z,3.73
2018-04-26T14:17:49.678Z,3.73
2018-04-26T14:20:19.015Z,5.13
2018-04-26T14:22:48.345Z,4.40
2018-04-26T14:25:17.683Z,6.93
2018-04-26T14:27:47.008Z,4.67
2018-04-26T14:30:16.336Z,3.87
2018-04-26T14:32:46.434Z,4.33
2018-04-26T14:35:15.758Z,6.87
2018-04-26T14:37:45.156Z,4.63
2018-04-26T14:40:14.495Z,5.03
2018-04-26T14:42:43.798Z,6.57
2018-04-26T14:45:13.119Z,7.23
2018-04-26T14:47:42.431Z,8.33
2018-04-26T14:50:11.763Z,7.13
2018-04-26T14:52:41.075Z,6.17
2018-04-26T14:55:11.177Z,6.17
2018-04-26T14:57:40.481Z,10.43
2018-04-26T15:00:09.804Z,6.97
2018-04-26T15:02:39.890Z,4.90
2018-04-26T15:05:09.191Z,5.23
2018-04-26T15:07:38.514Z,6.07
2018-04-26T15:10:07.822Z,4.23
2018-04-26T15:12:37.139Z,4.53
2018-04-26T15:15:07.237Z,7.37
2018-04-26T15:17:36.553Z,10.07
2018-04-26T15:20:05.881Z,6.03
2018-04-26T15:22:35.206Z,5.27
2018-04-26T15:25:04.508Z,5.87
2018-04-26T15:27:33.842Z,6.07
2018-04-26T15:30:03.177Z,4.10
2018-04-26T15:32:33.290Z,4.63
2018-04-26T15:35:03.405Z,7.10
2018-04-26T15:37:32.706Z,3.60
2018-04-26T15:40:02.023Z,4.23
2018-04-26T15:42:32.111Z,4.67
2018-04-26T15:45:02.433Z,2.83
2018-04-26T15:47:31.772Z,6.80
2018-04-26T15:50:01.933Z,4.63
2018-04-26T15:52:54.510Z,5.03
2018-04-26T15:55:41.541Z,3.10
2018-04-26T16:02:01.101Z,2.30
2018-04-26T16:04:48.194Z,3.80
2018-04-26T16:07:55.617Z,3.80
2018-04-26T16:10:48.395Z,2.67
2018-04-26T16:16:49.934Z,2.10
2018-04-26T16:19:43.380Z,4.13
2018-04-26T16:26:05.547Z,2.63
2018-04-26T16:32:18.256Z,4.80
2018-04-26T16:38:17.694Z,3.67
2018-04-26T16:40:47.106Z,2.40
2018-04-26T16:43:16.339Z,5.33
2018-04-26T16:45:45.699Z,2.37
2018-04-26T16:48:15.187Z,3.77
2018-04-26T16:50:45.527Z,3.03
2018-04-26T16:53:15.369Z,3.53
2018-04-26T16:55:44.776Z,5.50
2018-04-26T16:58:14.862Z,3.20
2018-04-26T17:00:44.263Z,2.40
2018-04-26T17:03:13.609Z,5.20
2018-04-26T17:05:43.693Z,3.97
2018-04-26T17:08:13.012Z,2.57
2018-04-26T17:10:42.377Z,2.77
2018-04-26T17:13:11.696Z,4.80
2018-04-26T17:15:41.344Z,3.37
2018-04-26T17:18:11.718Z,2.97
2018-04-26T17:20:41.023Z,4.60
2018-04-26T17:23:10.333Z,4.43
2018-04-26T17:25:40.433Z,4.23
2018-04-26T17:28:09.775Z,4.37
2018-04-26T17:30:39.097Z,3.60
2018-04-26T17:33:09.206Z,5.50
2018-04-26T17:35:38.569Z,5.73
2018-04-26T17:38:07.874Z,3.40
2018-04-26T17:40:37.181Z,5.70
2018-04-26T17:43:06.530Z,6.37
2018-04-26T17:45:36.645Z,6.17
2018-04-26T17:48:06.073Z,5.80
2018-04-26T17:50:35.478Z,4.87
2018-04-26T17:53:05.581Z,5.50
2018-04-26T17:55:34.905Z,6.90
2018-04-26T17:58:04.250Z,4.53
2018-04-26T18:00:33.575Z,4.40
2018-04-26T18:03:02.951Z,6.43
2018-04-26T18:05:32.318Z,4.00
2018-04-26T18:08:02.387Z,5.50
2018-04-26T18:10:31.702Z,6.07
2018-04-26T18:13:01.037Z,6.10
2018-04-26T18:15:31.114Z,6.87
2018-04-26T18:18:00.459Z,7.60
2018-04-26T18:20:30.541Z,5.07
2018-04-26T18:22:59.877Z,6.13
2018-04-26T18:25:29.958Z,5.63
2018-04-26T18:27:59.281Z,6.57
2018-04-26T18:30:28.620Z,6.57
2018-04-26T18:32:58.002Z,6.90
2018-04-26T18:35:27.328Z,9.60
2018-04-26T18:37:56.655Z,6.27
2018-04-26T18:40:25.975Z,6.20
2018-04-26T18:42:55.285Z,6.97
2018-04-26T18:45:24.606Z,6.23
2018-04-26T18:47:54.726Z,8.07
2018-04-26T18:50:24.035Z,6.90
2018-04-26T18:52:53.406Z,7.50
2018-04-26T18:55:22.705Z,7.70
2018-04-26T18:57:52.016Z,7.10
2018-04-26T19:00:21.350Z,7.50
2018-04-26T19:02:51.485Z,8.40
2018-04-26T19:05:20.760Z,8.03
2018-04-26T19:07:50.074Z,8.37
2018-04-26T19:10:20.186Z,8.53
2018-04-26T19:12:49.439Z,9.70
2018-04-26T19:15:18.787Z,10.27
2018-04-26T19:17:48.119Z,9.13
2018-04-26T19:20:18.212Z,20.43
2018-04-26T19:22:47.532Z,11.50
2018-04-26T19:25:17.616Z,9.50
2018-04-26T19:27:46.994Z,10.43
2018-04-26T19:30:17.040Z,12.30
2018-04-26T19:32:46.393Z,12.57
2018-04-26T19:35:15.803Z,9.83
2018-04-26T19:37:45.360Z,11.03
2018-04-26T19:40:14.719Z,10.57
2018-04-26T19:42:44.013Z,9.23
2018-04-26T19:45:13.343Z,8.93
2018-04-26T19:47:42.646Z,11.07
2018-04-26T19:50:11.961Z,10.30
2018-04-26T19:52:41.347Z,10.30
2018-04-26T19:55:10.720Z,9.00
2018-04-26T19:57:40.834Z,9.27
2018-04-26T20:00:10.135Z,8.03
2018-04-26T20:02:40.227Z,9.20
2018-04-26T20:05:09.530Z,8.47
2018-04-26T20:07:38.847Z,8.20
2018-04-26T20:10:08.157Z,7.50
2018-04-26T20:12:38.238Z,6.30
2018-04-26T20:15:07.546Z,6.97
2018-04-26T20:17:36.853Z,9.83
2018-04-26T20:20:06.191Z,9.23
2018-04-26T20:22:36.271Z,8.40
2018-04-26T20:25:05.603Z,8.07
2018-04-26T20:27:35.355Z,7.53
2018-04-26T20:30:04.673Z,6.60
2018-04-26T20:32:33.970Z,9.23
2018-04-26T20:35:03.293Z,8.00
2018-04-26T20:37:33.157Z,7.47
2018-04-26T20:40:02.484Z,8.73
2018-04-26T20:42:31.772Z,7.87
2018-04-26T20:45:01.088Z,7.03
2018-04-26T20:47:30.397Z,8.03
2018-04-26T20:49:59.793Z,7.17
2018-04-26T20:52:29.186Z,7.17
2018-04-26T20:54:58.505Z,7.87
2018-04-26T20:57:27.840Z,8.43
2018-04-26T20:59:57.175Z,6.23
2018-04-26T21:02:27.336Z,7.20
2018-04-26T21:04:56.615Z,7.00
2018-04-26T21:07:25.949Z,8.73
2018-04-26T21:09:55.422Z,6.53
2018-04-26T21:12:25.548Z,6.27
2018-04-26T21:14:54.866Z,6.13
2018-04-26T21:17:24.179Z,4.87
2018-04-26T21:19:53.544Z,6.67
2018-04-26T21:22:23.622Z,9.83
2018-04-26T21:24:52.966Z,8.60
2018-04-26T21:27:23.063Z,5.93
2018-04-26T21:29:52.407Z,9.23
2018-04-26T21:32:21.743Z,5.50
2018-04-26T21:34:51.063Z,6.20
2018-04-26T21:37:20.456Z,7.83
2018-04-26T21:39:49.799Z,7.03
2018-04-26T21:42:19.888Z,7.67
2018-04-26T21:44:49.219Z,6.03
2018-04-26T21:47:18.594Z,6.77
2018-04-26T21:49:53.475Z,5.93
2018-04-26T21:52:29.682Z,4.53
2018-04-26T21:55:04.435Z,7.23
2018-04-26T21:57:39.258Z,7.50
2018-04-26T22:00:14.134Z,5.93
2018-04-26T22:02:43.679Z,8.83
2018-04-26T22:05:31.477Z,8.03
2018-04-26T22:08:01.606Z,7.17
2018-04-26T22:10:30.957Z,8.37
2018-04-26T22:13:00.296Z,5.23
2018-04-26T22:15:30.419Z,8.07
2018-04-26T22:18:00.542Z,5.40
2018-04-26T22:20:30.663Z,6.00
2018-04-26T22:23:00.780Z,5.43
2018-04-26T22:25:30.886Z,8.80
2018-04-26T22:28:00.221Z,8.23
2018-04-26T22:30:29.596Z,6.53
2018-04-26T22:32:59.738Z,5.80
2018-04-26T22:35:29.848Z,8.40
2018-04-26T22:37:59.207Z,8.93
2018-04-26T22:40:28.584Z,6.67
2018-04-26T22:42:57.966Z,5.93
2018-04-26T22:45:28.086Z,7.07
2018-04-26T22:47:58.203Z,4.60
2018-04-26T22:50:28.344Z,6.97
2018-04-26T22:52:57.693Z,4.97
2018-04-26T22:55:27.067Z,6.37
2018-04-26T22:57:56.438Z,7.77
2018-04-26T23:00:26.546Z,8.27
2018-04-26T23:02:56.683Z,5.00
2018-04-26T23:05:26.093Z,6.10
2018-04-26T23:07:56.213Z,6.13
2018-04-26T23:10:26.333Z,5.40
2018-04-26T23:12:56.450Z,7.97
2018-04-26T23:15:25.796Z,5.33
2018-04-26T23:17:55.149Z,7.80
2018-04-26T23:20:25.246Z,6.43
2018-04-26T23:22:54.573Z,8.23
2018-04-26T23:25:24.681Z,4.87
2018-04-26T23:27:54.015Z,5.83
2018-04-26T23:30:24.948Z,7.97
2018-04-26T23:32:55.177Z,5.40
2018-04-26T23:35:24.450Z,6.23
2018-04-26T23:37:53.780Z,6.47
2018-04-26T23:40:23.139Z,6.67
2018-04-26T23:42:52.471Z,5.77
2018-04-26T23:45:22.562Z,6.17
2018-04-26T23:47:51.890Z,8.00
2018-04-26T23:50:21.980Z,5.87
2018-04-26T23:52:51.324Z,5.23
2018-04-26T23:55:21.433Z,5.57
2018-04-26T23:57:51.549Z,5.37
